sensor_id;sensor_type;location;lat;lon;timestamp;pressure;altitude;pressure_sealevel;temperature;humidity
82262;BME280;71861;52.364;6.580;2024-03-08T04:01:20;101919.16;;;0.54;100.00
82262;BME280;71861;52.364;6.580;2024-03-08T04:03:46;101909.06;;;0.51;100.00
82262;BME280;71861;52.364;6.580;2024-03-08T04:06:11;101910.88;;;0.49;100.00
82262;BME280;71861;52.364;6.580;2024-03-08T04:08:36;101912.69;;;0.47;100.00
82262;BME280;71861;52.364;6.580;2024-03-08T04:11:02;101906.78;;;0.45;100.00
82262;BME280;71861;52.364;6.580;2024-03-08T04:13:27;101907.69;;;0.44;100.00
82262;BME280;71861;52.364;6.580;2024-03-08T04:15:53;101902.59;;;0.44;100.00
82262;BME280;71861;52.364;6.580;2024-03-08T04:18:18;101901.88;;;0.41;100.00
82262;BME280;71861;52.364;6.580;2024-03-08T04:20:44;101902.94;;;0.37;100.00
82262;BME280;71861;52.364;6.580;2024-03-08T04:23:09;101898.00;;;0.32;100.00
82262;BME280;71861;52.364;6.580;2024-03-08T04:25:35;101905.69;;;0.32;100.00
82262;BME280;71861;52.364;6.580;2024-03-08T04:28:00;101899.72;;;0.32;100.00
82262;BME280;71861;52.364;6.580;2024-03-08T04:30:25;101894.41;;;0.36;100.00
82262;BME280;71861;52.364;6.580;2024-03-08T04:32:53;101895.31;;;0.35;100.00
82262;BME280;71861;52.364;6.580;2024-03-08T04:35:19;101896.34;;;0.31;100.00
82262;BME280;71861;52.364;6.580;2024-03-08T04:37:45;101897.50;;;0.24;100.00
82262;BME280;71861;52.364;6.580;2024-03-08T04:40:11;101892.47;;;0.23;100.00
82262;BME280;71861;52.364;6.580;2024-03-08T04:42:37;101893.41;;;0.20;100.00
82262;BME280;71861;52.364;6.580;2024-03-08T04:45:04;101893.53;;;0.17;100.00
82262;BME280;71861;52.364;6.580;2024-03-08T04:47:29;101885.13;;;0.15;100.00
82262;BME280;71861;52.364;6.580;2024-03-08T04:49:55;101891.13;;;0.14;100.00
82262;BME280;71861;52.364;6.580;2024-03-08T04:52:21;101889.41;;;0.15;100.00
82262;BME280;71861;52.364;6.580;2024-03-08T04:54:47;101885.00;;;0.18;100.00
82262;BME280;71861;52.364;6.580;2024-03-08T04:57:12;101882.31;;;0.21;100.00
82262;BME280;71861;52.364;6.580;2024-03-08T04:59:38;101886.72;;;0.18;100.00
82262;BME280;71861;52.364;6.580;2024-03-08T05:02:03;101880.91;;;0.14;100.00
82262;BME280;71861;52.364;6.580;2024-03-08T05:04:29;101878.34;;;0.14;100.00
82262;BME280;71861;52.364;6.580;2024-03-08T05:06:55;101877.53;;;0.14;100.00
82262;BME280;71861;52.364;6.580;2024-03-08T05:09:20;101878.28;;;0.16;100.00
82262;BME280;71861;52.364;6.580;2024-03-08T05:11:46;101875.78;;;0.14;100.00
82262;BME280;71861;52.364;6.580;2024-03-08T05:14:12;101870.69;;;0.14;100.00
82262;BME280;71861;52.364;6.580;2024-03-08T05:16:44;101863.78;;;0.16;100.00
82262;BME280;71861;52.364;6.580;2024-03-08T05:19:16;101867.84;;;0.20;100.00
82262;BME280;71861;52.364;6.580;2024-03-08T05:21:43;101869.72;;;0.17;100.00
82262;BME280;71861;52.364;6.580;2024-03-08T05:24:09;101869.59;;;0.20;100.00
82262;BME280;71861;52.364;6.580;2024-03-08T05:26:35;101872.22;;;0.18;100.00
82262;BME280;71861;52.364;6.580;2024-03-08T05:29:00;101869.72;;;0.17;100.00
82262;BME280;71861;52.364;6.580;2024-03-08T05:31:26;101869.03;;;0.13;100.00
82262;BME280;71861;52.364;6.580;2024-03-08T05:33:51;101870.69;;;0.14;100.00
82262;BME280;71861;52.364;6.580;2024-03-08T05:36:18;101864.00;;;0.12;100.00
82262;BME280;71861;52.364;6.580;2024-03-08T05:38:43;101859.78;;;0.11;100.00
82262;BME280;71861;52.364;6.580;2024-03-08T05:41:09;101869.09;;;0.12;100.00
82262;BME280;71861;52.364;6.580;2024-03-08T05:43:35;101867.38;;;0.12;100.00
82262;BME280;71861;52.364;6.580;2024-03-08T05:46:00;101863.28;;;0.08;100.00
82262;BME280;71861;52.364;6.580;2024-03-08T05:48:25;101865.84;;;0.08;100.00
82262;BME280;71861;52.364;6.580;2024-03-08T05:50:51;101862.66;;;0.03;100.00
82262;BME280;71861;52.364;6.580;2024-03-08T05:53:16;101855.06;;;0.02;100.00
82262;BME280;71861;52.364;6.580;2024-03-08T05:55:41;101859.47;;;-0.02;100.00
82262;BME280;71861;52.364;6.580;2024-03-08T05:58:06;101862.16;;;-0.05;100.00
82262;BME280;71861;52.364;6.580;2024-03-08T06:00:34;101850.06;;;-0.02;100.00
82262;BME280;71861;52.364;6.580;2024-03-08T06:03:01;101855.88;;;0.02;100.00
82262;BME280;71861;52.364;6.580;2024-03-08T06:05:27;101852.59;;;0.00;100.00
82262;BME280;71861;52.364;6.580;2024-03-08T06:07:53;101850.03;;;0.00;100.00
82262;BME280;71861;52.364;6.580;2024-03-08T06:10:18;101854.38;;;-0.02;100.00
82262;BME280;71861;52.364;6.580;2024-03-08T06:12:44;101847.84;;;-0.09;100.00
82262;BME280;71861;52.364;6.580;2024-03-08T06:15:10;101856.34;;;-0.09;100.00
82262;BME280;71861;52.364;6.580;2024-03-08T06:17:40;101852.16;;;-0.10;100.00
82262;BME280;71861;52.364;6.580;2024-03-08T06:20:06;101853.78;;;-0.09;100.00
82262;BME280;71861;52.364;6.580;2024-03-08T06:22:39;101857.88;;;-0.05;100.00
82262;BME280;71861;52.364;6.580;2024-03-08T06:25:07;101852.00;;;-0.07;100.00
82262;BME280;71861;52.364;6.580;2024-03-08T06:27:32;101850.97;;;-0.03;100.00
82262;BME280;71861;52.364;6.580;2024-03-08T06:29:59;101851.81;;;-0.02;100.00
82262;BME280;71861;52.364;6.580;2024-03-08T06:32:25;101855.06;;;0.02;100.00
82262;BME280;71861;52.364;6.580;2024-03-08T06:34:50;101855.81;;;0.03;100.00
82262;BME280;71861;52.364;6.580;2024-03-08T06:37:16;101853.00;;;0.10;100.00
82262;BME280;71861;52.364;6.580;2024-03-08T06:39:47;101850.38;;;0.11;100.00
82262;BME280;71861;52.364;6.580;2024-03-08T06:42:12;101851.78;;;0.18;100.00
82262;BME280;71861;52.364;6.580;2024-03-08T06:44:38;101853.28;;;0.22;100.00
82262;BME280;71861;52.364;6.580;2024-03-08T06:47:10;101848.19;;;0.22;100.00
82262;BME280;71861;52.364;6.580;2024-03-08T06:49:36;101849.72;;;0.26;100.00
82262;BME280;71861;52.364;6.580;2024-03-08T06:52:01;101841.00;;;0.30;100.00
82262;BME280;71861;52.364;6.580;2024-03-08T06:54:26;101846.75;;;0.35;100.00
82262;BME280;71861;52.364;6.580;2024-03-08T06:56:51;101832.84;;;0.41;100.00
82262;BME280;71861;52.364;6.580;2024-03-08T06:59:17;101829.25;;;0.45;100.00
82262;BME280;71861;52.364;6.580;2024-03-08T07:01:43;101821.03;;;0.57;99.86
82262;BME280;71861;52.364;6.580;2024-03-08T07:04:08;101836.72;;;0.68;99.41
82262;BME280;71861;52.364;6.580;2024-03-08T07:06:34;101839.72;;;0.76;99.27
82262;BME280;71861;52.364;6.580;2024-03-08T07:08:59;101835.16;;;0.82;97.83
82262;BME280;71861;52.364;6.580;2024-03-08T07:11:25;101839.53;;;0.97;98.42
82262;BME280;71861;52.364;6.580;2024-03-08T07:13:50;101838.91;;;1.11;96.43
82262;BME280;71861;52.364;6.580;2024-03-08T07:16:15;101839.06;;;1.25;96.31
82262;BME280;71861;52.364;6.580;2024-03-08T07:18:41;101836.06;;;1.34;95.92
82262;BME280;71861;52.364;6.580;2024-03-08T07:21:11;101826.16;;;1.43;95.04
82262;BME280;71861;52.364;6.580;2024-03-08T07:23:36;101823.66;;;1.59;94.81
82262;BME280;71861;52.364;6.580;2024-03-08T07:26:36;101825.41;;;1.76;93.16
82262;BME280;71861;52.364;6.580;2024-03-08T07:29:03;101819.97;;;1.82;92.34
82262;BME280;71861;52.364;6.580;2024-03-08T07:31:28;101805.03;;;1.90;90.80
82262;BME280;71861;52.364;6.580;2024-03-08T07:34:09;101804.47;;;2.00;90.61
82262;BME280;71861;52.364;6.580;2024-03-08T07:36:35;101781.81;;;1.93;90.94
82262;BME280;71861;52.364;6.580;2024-03-08T07:39:00;101813.25;;;2.27;90.11
82262;BME280;71861;52.364;6.580;2024-03-08T07:41:26;101810.13;;;2.38;89.26
82262;BME280;71861;52.364;6.580;2024-03-08T07:43:51;101801.78;;;2.50;88.27
82262;BME280;71861;52.364;6.580;2024-03-08T07:46:17;101806.56;;;2.56;87.33
82262;BME280;71861;52.364;6.580;2024-03-08T07:48:43;101798.19;;;2.68;86.85
82262;BME280;71861;52.364;6.580;2024-03-08T07:51:10;101802.97;;;2.89;86.96
82262;BME280;71861;52.364;6.580;2024-03-08T07:53:37;101804.00;;;3.01;86.79
82262;BME280;71861;52.364;6.580;2024-03-08T07:56:03;101802.31;;;3.15;84.74
82262;BME280;71861;52.364;6.580;2024-03-08T07:58:30;101785.41;;;3.41;84.75
82262;BME280;71861;52.364;6.580;2024-03-08T08:00:55;101787.28;;;3.53;84.45
82262;BME280;71861;52.364;6.580;2024-03-08T08:03:20;101782.31;;;3.64;83.74
82262;BME280;71861;52.364;6.580;2024-03-08T08:05:46;101785.91;;;3.76;81.92
82262;BME280;71861;52.364;6.580;2024-03-08T08:08:11;101779.84;;;3.91;81.45
82262;BME280;71861;52.364;6.580;2024-03-08T08:10:37;101786.44;;;4.09;81.11
82262;BME280;71861;52.364;6.580;2024-03-08T08:13:03;101786.50;;;4.35;79.34
82262;BME280;71861;52.364;6.580;2024-03-08T08:15:29;101773.53;;;4.37;80.31
82262;BME280;71861;52.364;6.580;2024-03-08T08:17:55;101771.75;;;4.51;79.12
82262;BME280;71861;52.364;6.580;2024-03-08T08:20:20;101773.00;;;4.58;77.06
82262;BME280;71861;52.364;6.580;2024-03-08T08:22:47;101771.81;;;4.64;75.81
82262;BME280;71861;52.364;6.580;2024-03-08T08:25:13;101754.41;;;4.67;76.13
82262;BME280;71861;52.364;6.580;2024-03-08T08:27:41;101758.72;;;4.93;74.73
82262;BME280;71861;52.364;6.580;2024-03-08T08:30:08;101761.72;;;5.12;77.47
82262;BME280;71861;52.364;6.580;2024-03-08T08:32:36;101755.25;;;5.20;73.18
82262;BME280;71861;52.364;6.580;2024-03-08T08:35:02;101747.00;;;5.14;72.59
82262;BME280;71861;52.364;6.580;2024-03-08T08:37:29;101745.34;;;5.39;74.36
82262;BME280;71861;52.364;6.580;2024-03-08T08:39:55;101719.59;;;5.39;72.18
82262;BME280;71861;52.364;6.580;2024-03-08T08:42:20;101746.72;;;5.32;72.16
82262;BME280;71861;52.364;6.580;2024-03-08T08:44:45;101734.16;;;5.40;72.66
82262;BME280;71861;52.364;6.580;2024-03-08T08:47:11;101736.59;;;5.66;73.92
82262;BME280;71861;52.364;6.580;2024-03-08T08:49:38;101733.38;;;6.00;72.85
82262;BME280;71861;52.364;6.580;2024-03-08T08:52:03;101729.94;;;6.36;71.60
82262;BME280;71861;52.364;6.580;2024-03-08T08:54:29;101698.78;;;6.26;71.58
82262;BME280;71861;52.364;6.580;2024-03-08T08:56:54;101721.59;;;6.56;70.40
82262;BME280;71861;52.364;6.580;2024-03-08T08:59:20;101719.28;;;6.64;68.93
82262;BME280;71861;52.364;6.580;2024-03-08T09:01:46;101720.59;;;6.69;68.35
82262;BME280;71861;52.364;6.580;2024-03-08T09:04:15;101718.84;;;7.05;70.36
82262;BME280;71861;52.364;6.580;2024-03-08T09:06:41;101716.50;;;7.24;66.11
82262;BME280;71861;52.364;6.580;2024-03-08T09:09:07;101701.59;;;7.27;67.38
82262;BME280;71861;52.364;6.580;2024-03-08T09:11:36;101704.41;;;7.24;65.24
82262;BME280;71861;52.364;6.580;2024-03-08T09:14:01;101701.47;;;7.18;64.96
82262;BME280;71861;52.364;6.580;2024-03-08T09:16:27;101701.03;;;7.35;65.45
82262;BME280;71861;52.364;6.580;2024-03-08T09:18:52;101715.97;;;7.53;65.78
82262;BME280;71861;52.364;6.580;2024-03-08T09:21:18;101695.88;;;7.57;65.13
82262;BME280;71861;52.364;6.580;2024-03-08T09:23:43;101690.09;;;7.75;64.00
82262;BME280;71861;52.364;6.580;2024-03-08T09:26:10;101691.63;;;7.78;62.48
82262;BME280;71861;52.364;6.580;2024-03-08T09:28:37;101687.41;;;7.66;61.52
82262;BME280;71861;52.364;6.580;2024-03-08T09:31:03;101680.00;;;7.72;62.89
82262;BME280;71861;52.364;6.580;2024-03-08T09:33:30;101682.09;;;7.67;62.80
82262;BME280;71861;52.364;6.580;2024-03-08T09:35:56;101685.84;;;7.85;nan
82262;BME280;71861;52.364;6.580;2024-03-08T09:38:25;101679.28;;;7.81;62.25
82262;BME280;71861;52.364;6.580;2024-03-08T09:40:51;101668.06;;;8.03;65.00
82262;BME280;71861;52.364;6.580;2024-03-08T09:43:16;101663.16;;;8.31;62.64
82262;BME280;71861;52.364;6.580;2024-03-08T09:45:45;101665.97;;;8.39;60.04
82262;BME280;71861;52.364;6.580;2024-03-08T09:48:12;101660.44;;;8.33;61.06
82262;BME280;71861;52.364;6.580;2024-03-08T09:50:39;101656.75;;;8.47;61.95
82262;BME280;71861;52.364;6.580;2024-03-08T09:53:04;101653.63;;;8.64;60.28
82262;BME280;71861;52.364;6.580;2024-03-08T09:55:34;101641.72;;;8.82;58.88
82262;BME280;71861;52.364;6.580;2024-03-08T09:58:02;101641.47;;;8.85;61.08
82262;BME280;71861;52.364;6.580;2024-03-08T10:00:48;101633.69;;;9.05;61.11
82262;BME280;71861;52.364;6.580;2024-03-08T10:03:14;101627.78;;;9.33;59.45
82262;BME280;71861;52.364;6.580;2024-03-08T10:05:41;101620.66;;;9.26;57.78
82262;BME280;71861;52.364;6.580;2024-03-08T10:08:07;101621.66;;;9.34;59.39
82262;BME280;71861;52.364;6.580;2024-03-08T10:10:35;101605.72;;;9.39;58.24
82262;BME280;71861;52.364;6.580;2024-03-08T10:13:01;101624.66;;;9.39;58.52
82262;BME280;71861;52.364;6.580;2024-03-08T10:15:29;101610.09;;;9.48;59.02
82262;BME280;71861;52.364;6.580;2024-03-08T10:17:57;101606.91;;;9.74;58.65
82262;BME280;71861;52.364;6.580;2024-03-08T10:20:22;101603.03;;;9.59;57.44
82262;BME280;71861;52.364;6.580;2024-03-08T10:22:49;101598.44;;;9.82;61.13
82262;BME280;71861;52.364;6.580;2024-03-08T10:25:15;101597.38;;;10.03;58.69
82262;BME280;71861;52.364;6.580;2024-03-08T10:27:40;101576.56;;;9.84;56.65
82262;BME280;71861;52.364;6.580;2024-03-08T10:30:10;101594.31;;;9.79;58.41
82262;BME280;71861;52.364;6.580;2024-03-08T10:32:37;101587.50;;;9.78;57.58
82262;BME280;71861;52.364;6.580;2024-03-08T10:35:03;101590.94;;;9.79;58.29
82262;BME280;71861;52.364;6.580;2024-03-08T10:37:29;101575.22;;;9.99;57.24
82262;BME280;71861;52.364;6.580;2024-03-08T10:40:04;101560.03;;;9.85;56.29
82262;BME280;71861;52.364;6.580;2024-03-08T10:42:40;101582.97;;;9.71;58.38
82262;BME280;71861;52.364;6.580;2024-03-08T10:45:15;101583.72;;;10.11;56.38
82262;BME280;71861;52.364;6.580;2024-03-08T10:47:41;101579.63;;;10.37;57.68
82262;BME280;71861;52.364;6.580;2024-03-08T10:52:41;101562.22;;;10.47;55.06
82262;BME280;71861;52.364;6.580;2024-03-08T10:55:08;101565.69;;;10.19;55.86
82262;BME280;71861;52.364;6.580;2024-03-08T10:57:38;101564.03;;;10.18;55.40
82262;BME280;71861;52.364;6.580;2024-03-08T11:00:04;101561.28;;;9.81;56.19
82262;BME280;71861;52.364;6.580;2024-03-08T11:02:34;101558.41;;;10.03;56.57
82262;BME280;71861;52.364;6.580;2024-03-08T11:05:01;101546.81;;;10.17;56.88
82262;BME280;71861;52.364;6.580;2024-03-08T11:07:30;101544.91;;;10.19;54.14
82262;BME280;71861;52.364;6.580;2024-03-08T11:10:02;101542.84;;;10.23;56.12
82262;BME280;71861;52.364;6.580;2024-03-08T11:12:36;101540.75;;;10.55;56.79
82262;BME280;71861;52.364;6.580;2024-03-08T11:15:10;101533.03;;;10.72;54.66
82262;BME280;71861;52.364;6.580;2024-03-08T11:20:10;101539.03;;;10.36;54.81
82262;BME280;71861;52.364;6.580;2024-03-08T11:22:42;101523.59;;;10.71;55.52
82262;BME280;71861;52.364;6.580;2024-03-08T11:25:30;101518.81;;;10.76;54.72
82262;BME280;71861;52.364;6.580;2024-03-08T11:28:11;101504.69;;;10.79;53.42
82262;BME280;71861;52.364;6.580;2024-03-08T11:30:45;101508.88;;;10.89;53.00
82262;BME280;71861;52.364;6.580;2024-03-08T11:33:13;101509.50;;;10.74;53.32
82262;BME280;71861;52.364;6.580;2024-03-08T11:35:39;101500.41;;;10.87;53.84
82262;BME280;71861;52.364;6.580;2024-03-08T11:38:08;101496.47;;;10.83;52.92
82262;BME280;71861;52.364;6.580;2024-03-08T11:40:34;101477.28;;;10.84;52.93
82262;BME280;71861;52.364;6.580;2024-03-08T11:43:00;101502.97;;;10.60;53.25
82262;BME280;71861;52.364;6.580;2024-03-08T11:45:28;101500.91;;;11.00;53.74
82262;BME280;71861;52.364;6.580;2024-03-08T11:47:54;101476.91;;;11.06;52.98
82262;BME280;71861;52.364;6.580;2024-03-08T11:50:20;101472.09;;;11.11;55.22
82262;BME280;71861;52.364;6.580;2024-03-08T11:52:46;101475.78;;;11.36;53.37
82262;BME280;71861;52.364;6.580;2024-03-08T11:55:12;101468.03;;;11.26;53.57
82262;BME280;71861;52.364;6.580;2024-03-08T11:57:39;101466.44;;;11.16;54.15
82262;BME280;71861;52.364;6.580;2024-03-08T12:00:04;101461.41;;;11.14;52.35
82262;BME280;71861;52.364;6.580;2024-03-08T12:02:33;101453.31;;;11.35;54.27
82262;BME280;71861;52.364;6.580;2024-03-08T12:05:02;101453.41;;;11.60;54.20
82262;BME280;71861;52.364;6.580;2024-03-08T12:07:41;101445.38;;;11.71;50.99
82262;BME280;71861;52.364;6.580;2024-03-08T12:10:20;101432.41;;;11.44;51.22
82262;BME280;71861;52.364;6.580;2024-03-08T12:12:48;101439.44;;;11.44;52.10
82262;BME280;71861;52.364;6.580;2024-03-08T12:15:19;101429.28;;;11.58;52.33
82262;BME280;71861;52.364;6.580;2024-03-08T12:17:47;101420.00;;;11.56;51.87
82262;BME280;71861;52.364;6.580;2024-03-08T12:20:18;101424.03;;;11.86;51.85
82262;BME280;71861;52.364;6.580;2024-03-08T12:22:44;101417.13;;;11.77;51.59
82262;BME280;71861;52.364;6.580;2024-03-08T12:25:13;101407.19;;;11.80;50.79
82262;BME280;71861;52.364;6.580;2024-03-08T12:27:40;101404.03;;;11.33;50.98
82262;BME280;71861;52.364;6.580;2024-03-08T12:30:25;101385.34;;;11.03;51.88
82262;BME280;71861;52.364;6.580;2024-03-08T12:32:58;101380.91;;;11.13;51.45
82262;BME280;71861;52.364;6.580;2024-03-08T12:35:28;101385.38;;;11.20;51.44
82262;BME280;71861;52.364;6.580;2024-03-08T12:37:58;101384.25;;;11.40;51.96
82262;BME280;71861;52.364;6.580;2024-03-08T12:40:31;101376.44;;;11.23;52.04
82262;BME280;71861;52.364;6.580;2024-03-08T12:42:57;101371.31;;;11.48;50.26
82262;BME280;71861;52.364;6.580;2024-03-08T12:45:23;101370.34;;;11.49;52.97
82262;BME280;71861;52.364;6.580;2024-03-08T12:47:52;101372.13;;;11.66;50.69
82262;BME280;71861;52.364;6.580;2024-03-08T12:50:21;101361.13;;;11.55;51.51
82262;BME280;71861;52.364;6.580;2024-03-08T12:52:47;101365.75;;;11.87;51.11
82262;BME280;71861;52.364;6.580;2024-03-08T12:55:14;101367.50;;;12.04;50.80
82262;BME280;71861;52.364;6.580;2024-03-08T12:57:39;101347.06;;;12.25;51.22
82262;BME280;71861;52.364;6.580;2024-03-08T13:00:05;101332.09;;;12.27;47.64
82262;BME280;71861;52.364;6.580;2024-03-08T13:02:31;101356.22;;;12.29;48.54
82262;BME280;71861;52.364;6.580;2024-03-08T13:04:57;101346.13;;;12.26;49.46
82262;BME280;71861;52.364;6.580;2024-03-08T13:07:24;101335.06;;;12.32;47.53
82262;BME280;71861;52.364;6.580;2024-03-08T13:09:52;101333.16;;;12.50;48.51
82262;BME280;71861;52.364;6.580;2024-03-08T13:12:18;101322.09;;;12.56;46.77
82262;BME280;71861;52.364;6.580;2024-03-08T13:14:45;101321.22;;;12.31;46.02
82262;BME280;71861;52.364;6.580;2024-03-08T13:17:13;101314.22;;;12.32;46.01
82262;BME280;71861;52.364;6.580;2024-03-08T13:19:39;101318.81;;;12.46;45.82
82262;BME280;71861;52.364;6.580;2024-03-08T13:22:05;101310.31;;;12.36;46.88
82262;BME280;71861;52.364;6.580;2024-03-08T13:24:30;101310.06;;;12.13;46.05
82262;BME280;71861;52.364;6.580;2024-03-08T13:26:56;101296.56;;;12.18;48.16
82262;BME280;71861;52.364;6.580;2024-03-08T13:29:22;101300.94;;;12.17;45.94
82262;BME280;71861;52.364;6.580;2024-03-08T13:31:48;101285.59;;;11.98;45.51
82262;BME280;71861;52.364;6.580;2024-03-08T13:34:20;101299.81;;;11.78;47.16
82262;BME280;71861;52.364;6.580;2024-03-08T13:36:53;101292.56;;;11.98;48.90
82262;BME280;71861;52.364;6.580;2024-03-08T13:39:19;101274.53;;;12.04;48.66
82262;BME280;71861;52.364;6.580;2024-03-08T13:41:46;101279.31;;;12.17;47.73
82262;BME280;71861;52.364;6.580;2024-03-08T13:44:11;101270.84;;;12.15;48.36
82262;BME280;71861;52.364;6.580;2024-03-08T13:46:37;101277.00;;;12.06;48.92
82262;BME280;71861;52.364;6.580;2024-03-08T13:49:04;101263.56;;;11.93;46.42
82262;BME280;71861;52.364;6.580;2024-03-08T13:51:36;101255.06;;;11.83;46.60
82262;BME280;71861;52.364;6.580;2024-03-08T13:54:01;101260.59;;;11.80;47.39
82262;BME280;71861;52.364;6.580;2024-03-08T13:56:28;101253.56;;;11.80;49.68
82262;BME280;71861;52.364;6.580;2024-03-08T13:58:59;101217.13;;;11.72;46.54
82262;BME280;71861;52.364;6.580;2024-03-08T14:01:24;101230.16;;;11.54;47.29
82262;BME280;71861;52.364;6.580;2024-03-08T14:03:50;101227.81;;;11.43;47.36
82262;BME280;71861;52.364;6.580;2024-03-08T14:06:16;101241.69;;;11.26;47.73
82262;BME280;71861;52.364;6.580;2024-03-08T14:08:41;101230.56;;;11.16;48.37
82262;BME280;71861;52.364;6.580;2024-03-08T14:11:06;101226.88;;;11.01;51.40
82262;BME280;71861;52.364;6.580;2024-03-08T14:13:43;101222.28;;;10.95;49.70
82262;BME280;71861;52.364;6.580;2024-03-08T14:16:11;101216.75;;;10.73;50.37
82262;BME280;71861;52.364;6.580;2024-03-08T14:18:39;101225.94;;;10.50;52.07
82262;BME280;71861;52.364;6.580;2024-03-08T14:21:07;101222.44;;;10.41;53.40
82262;BME280;71861;52.364;6.580;2024-03-08T14:23:33;101216.13;;;10.26;52.13
82262;BME280;71861;52.364;6.580;2024-03-08T14:25:59;101210.31;;;10.15;53.55
82262;BME280;71861;52.364;6.580;2024-03-08T14:28:25;101197.78;;;10.10;52.07
82262;BME280;71861;52.364;6.580;2024-03-08T14:30:55;101162.69;;;9.79;52.72
82262;BME280;71861;52.364;6.580;2024-03-08T14:33:20;101202.75;;;9.94;53.51
82262;BME280;71861;52.364;6.580;2024-03-08T14:35:46;101209.09;;;9.82;53.26
82262;BME280;71861;52.364;6.580;2024-03-08T14:38:12;101193.97;;;9.77;54.49
82262;BME280;71861;52.364;6.580;2024-03-08T14:40:38;101196.78;;;9.84;54.99
82262;BME280;71861;52.364;6.580;2024-03-08T14:43:04;101196.31;;;9.71;54.79
82262;BME280;71861;52.364;6.580;2024-03-08T14:45:29;101164.81;;;9.56;54.57
82262;BME280;71861;52.364;6.580;2024-03-08T14:47:56;101171.84;;;9.46;55.86
82262;BME280;71861;52.364;6.580;2024-03-08T14:50:23;101183.63;;;9.31;55.88
82262;BME280;71861;52.364;6.580;2024-03-08T14:52:49;101174.91;;;9.23;55.90
82262;BME280;71861;52.364;6.580;2024-03-08T14:55:18;101117.66;;;9.07;56.06
82262;BME280;71861;52.364;6.580;2024-03-08T14:57:47;101109.31;;;9.13;56.10
82262;BME280;71861;52.364;6.580;2024-03-08T15:00:13;101155.56;;;9.08;56.96
82262;BME280;71861;52.364;6.580;2024-03-08T15:02:57;101158.44;;;9.05;56.45
82262;BME280;71861;52.364;6.580;2024-03-08T15:05:22;101155.84;;;9.05;56.57
82262;BME280;71861;52.364;6.580;2024-03-08T15:07:57;101161.75;;;8.97;57.10
82262;BME280;71861;52.364;6.580;2024-03-08T15:10:22;101150.16;;;8.92;57.03
82262;BME280;71861;52.364;6.580;2024-03-08T15:12:50;101152.47;;;8.95;58.28
82262;BME280;71861;52.364;6.580;2024-03-08T15:15:20;101141.84;;;8.88;57.80
82262;BME280;71861;52.364;6.580;2024-03-08T15:17:45;101150.72;;;8.86;58.40
82262;BME280;71861;52.364;6.580;2024-03-08T15:20:12;101134.09;;;8.79;58.17
82262;BME280;71861;52.364;6.580;2024-03-08T15:22:53;101142.53;;;8.81;58.64
82262;BME280;71861;52.364;6.580;2024-03-08T15:25:20;101145.13;;;8.81;59.12
82262;BME280;71861;52.364;6.580;2024-03-08T15:27:54;101145.09;;;8.90;59.32
82262;BME280;71861;52.364;6.580;2024-03-08T15:30:20;101114.72;;;8.83;57.69
82262;BME280;71861;52.364;6.580;2024-03-08T15:32:52;101126.72;;;8.84;58.47
82262;BME280;71861;52.364;6.580;2024-03-08T15:35:22;101111.44;;;8.81;57.39
82262;BME280;71861;52.364;6.580;2024-03-08T15:37:48;101124.44;;;8.71;57.20
82262;BME280;71861;52.364;6.580;2024-03-08T15:40:13;101114.59;;;8.75;58.02
82262;BME280;71861;52.364;6.580;2024-03-08T15:45:16;101121.97;;;8.70;58.88
82262;BME280;71861;52.364;6.580;2024-03-08T15:47:43;101116.09;;;8.68;58.11
82262;BME280;71861;52.364;6.580;2024-03-08T15:50:12;101109.16;;;8.68;58.18
82262;BME280;71861;52.364;6.580;2024-03-08T15:52:46;101102.06;;;8.61;57.74
82262;BME280;71861;52.364;6.580;2024-03-08T15:55:19;101099.09;;;8.56;59.00
82262;BME280;71861;52.364;6.580;2024-03-08T15:57:47;101087.88;;;8.65;58.89
82262;BME280;71861;52.364;6.580;2024-03-08T16:00:16;101107.00;;;8.64;58.50
82262;BME280;71861;52.364;6.580;2024-03-08T16:02:55;101102.75;;;8.63;59.27
82262;BME280;71861;52.364;6.580;2024-03-08T16:05:20;101098.81;;;8.59;57.71
82262;BME280;71861;52.364;6.580;2024-03-08T16:07:47;101101.69;;;8.56;57.83
82262;BME280;71861;52.364;6.580;2024-03-08T16:10:12;101081.94;;;8.45;58.15
82262;BME280;71861;52.364;6.580;2024-03-08T16:12:37;101095.41;;;8.48;58.08
82262;BME280;71861;52.364;6.580;2024-03-08T16:15:05;101080.28;;;8.44;57.93
82262;BME280;71861;52.364;6.580;2024-03-08T16:17:33;101083.97;;;8.41;58.87
82262;BME280;71861;52.364;6.580;2024-03-08T16:19:58;101081.66;;;8.38;59.12
82262;BME280;71861;52.364;6.580;2024-03-08T16:22:24;101081.09;;;8.35;58.58
82262;BME280;71861;52.364;6.580;2024-03-08T16:24:50;101081.53;;;8.30;59.36
82262;BME280;71861;52.364;6.580;2024-03-08T16:27:16;101080.16;;;8.26;59.01
82262;BME280;71861;52.364;6.580;2024-03-08T16:29:42;101077.03;;;8.23;58.60
82262;BME280;71861;52.364;6.580;2024-03-08T16:32:09;101076.44;;;8.19;59.38
82262;BME280;71861;52.364;6.580;2024-03-08T16:34:35;101068.97;;;8.16;59.59
82262;BME280;71861;52.364;6.580;2024-03-08T16:37:01;101068.03;;;8.08;60.34
82262;BME280;71861;52.364;6.580;2024-03-08T16:39:27;101065.00;;;8.03;60.66
82262;BME280;71861;52.364;6.580;2024-03-08T16:41:54;101048.50;;;7.94;61.16
82262;BME280;71861;52.364;6.580;2024-03-08T16:44:19;101067.59;;;7.93;61.37
82262;BME280;71861;52.364;6.580;2024-03-08T16:46:46;101069.75;;;7.88;62.33
82262;BME280;71861;52.364;6.580;2024-03-08T16:49:14;101060.91;;;7.81;62.49
82262;BME280;71861;52.364;6.580;2024-03-08T16:51:40;101059.66;;;7.76;62.41
82262;BME280;71861;52.364;6.580;2024-03-08T16:54:06;101044.16;;;7.66;63.06
82262;BME280;71861;52.364;6.580;2024-03-08T16:56:33;101062.66;;;7.71;63.41
82262;BME280;71861;52.364;6.580;2024-03-08T16:58:59;101055.84;;;7.61;63.85
82262;BME280;71861;52.364;6.580;2024-03-08T17:01:24;101052.28;;;7.52;64.17
82262;BME280;71861;52.364;6.580;2024-03-08T17:03:49;101042.63;;;7.45;64.60